CZCP

Cape Parry Airport

Cape Parry, Canada
METAR CZCP 121900Z AUTO 08017KT ////SM //// SCT003 SCT021 OVC150 M23/M27 A2951
Observed Flight Rules
Dec-12 @ 19:00 UTC (an hour ago)
Wind Clouds
80° at 17 knots
  • Scattered at 300' AGL
  • Scattered at 2,100' AGL
  • Overcast at 15,000' AGL
Temperatures Readings
Current -23°C / -9°F
Dewpoint -27°C / -17°F
Humidity 70%
Altimeter 29.51" Hg
Pressure 999 hPa
Elevation 93
METAR CZCP 121900Z AUTO 08017KT ////SM //// SCT003 SCT021 OVC150 M23/M27 A2951
Observed Flight Rules
Dec-12 @ 19:00 UTC
(an hour ago)
Wind
80° at 17 knots
Clouds
  • Scattered at 300' AGL
  • Scattered at 2,100' AGL
  • Overcast at 15,000' AGL
Temperature Dewpoint
-23°C / -9°F -27°C / -17°F
Humidity Altimeter Pressure
70% 29.51" Hg 999 hPa